Time;durP1;ratioP1;P1;durP2;ratioP2;P2;SDS_P1;SDS_P2;PMS_P1;PMS_P2;Temp;Humidity;BMP_temperature;BMP_pressure;BME280_temperature;BME280_humidity;BME280_pressure;Samples;Min_cycle;Max_cycle;Signal;HPM_P1;HPM_P2
2021/06/10 00:22:50;;;;;;;13.97;12.80;;;20.90;98.30;;;;;;5003846;23;20419;-81
2021/06/10 00:25:13;;;;;;;13.97;12.70;;;20.90;98.30;;;;;;5072880;23;20798;-81
2021/06/10 00:28:19;;;;;;;13.60;12.30;;;20.90;98.30;;;;;;5123424;23;20453;-81
2021/06/10 00:30:39;;;;;;;14.27;13.07;;;20.80;98.30;;;;;;5105211;23;20432;-81
2021/06/10 05:32:26;;;;;;;32.93;24.63;;;20.20;98.00;;;;;;4993777;23;20434;-82
2021/06/10 05:34:31;;;;;;;24.50;20.10;;;20.30;98.10;;;;;;5007967;23;20435;-83
2021/06/10 05:36:35;;;;;;;24.40;18.77;;;20.40;98.30;;;;;;5047482;23;20452;-82
2021/06/10 05:38:39;;;;;;;15.07;13.07;;;20.40;97.90;;;;;;5039713;23;20452;-82
2021/06/10 05:40:45;;;;;;;14.43;12.80;;;20.30;97.50;;;;;;5024582;23;20512;-82
2021/06/10 05:42:49;;;;;;;13.63;12.33;;;20.20;97.60;;;;;;5048210;23;20989;-82
2021/06/10 05:44:58;;;;;;;14.60;13.20;;;20.20;98.10;;;;;;5038605;23;20930;-82
2021/06/10 05:47:03;;;;;;;17.43;15.60;;;20.20;98.30;;;;;;5047533;23;20408;-82
2021/06/10 05:49:08;;;;;;;12.80;11.00;;;20.20;98.30;;;;;;5072901;23;20757;-82
2021/06/10 05:51:13;;;;;;;21.23;18.93;;;20.00;97.70;;;;;;5124546;23;20513;-82
2021/06/10 05:53:17;;;;;;;19.33;15.23;;;19.90;98.30;;;;;;5123601;23;20519;-82
2021/06/10 05:55:22;;;;;;;13.80;12.50;;;20.00;98.30;;;;;;5124174;23;21001;-82
2021/06/10 05:57:26;;;;;;;12.23;10.07;;;20.10;98.30;;;;;;5124036;23;20426;-82
2021/06/10 05:59:29;;;;;;;25.33;17.37;;;20.00;98.30;;;;;;5124037;23;20509;-82
2021/06/10 06:01:31;;;;;;;14.30;12.03;;;20.10;98.30;;;;;;5124611;23;20425;-82
2021/06/10 06:03:34;;;;;;;15.70;13.00;;;20.10;98.30;;;;;;5124462;23;20424;-82
2021/06/10 06:05:38;;;;;;;10.10;9.20;;;20.10;98.30;;;;;;5124839;23;20533;-83
2021/06/10 06:07:40;;;;;;;14.30;10.67;;;20.10;98.30;;;;;;5125097;23;20445;-83
2021/06/10 06:09:43;;;;;;;14.43;12.93;;;20.00;98.30;;;;;;5125729;23;20517;-83
2021/06/10 06:11:47;;;;;;;13.83;12.30;;;20.20;98.30;;;;;;5125786;23;20445;-83
2021/06/10 06:13:54;;;;;;;18.80;16.20;;;20.30;98.30;;;;;;5117767;23;20744;-83
2021/06/10 06:16:05;;;;;;;16.73;12.93;;;20.40;98.30;;;;;;5117364;23;20449;-83
2021/06/10 06:18:09;;;;;;;15.73;12.10;;;20.50;98.30;;;;;;5116332;23;21141;-82
2021/06/10 06:20:13;;;;;;;11.70;10.50;;;20.50;98.30;;;;;;5125789;23;20414;-82
2021/06/10 06:22:17;;;;;;;14.67;9.67;;;20.80;98.30;;;;;;5125208;23;20442;-82
2021/06/10 06:24:20;;;;;;;13.93;11.37;;;21.00;98.30;;;;;;5125542;23;20430;-81
2021/06/10 06:26:22;;;;;;;18.87;14.67;;;21.00;97.60;;;;;;5124746;23;20520;-82
2021/06/10 06:28:25;;;;;;;16.77;13.77;;;21.00;97.60;;;;;;5115825;23;20484;-82
2021/06/10 06:30:27;;;;;;;56.90;43.07;;;21.00;97.50;;;;;;5116464;23;20450;-82
2021/06/10 06:32:31;;;;;;;25.13;22.43;;;21.00;97.30;;;;;;5125227;23;20453;-82
2021/06/10 06:34:33;;;;;;;11.77;10.50;;;21.00;97.50;;;;;;5125115;23;20998;-82
2021/06/10 06:36:38;;;;;;;9.80;8.90;;;21.10;97.00;;;;;;5124156;23;20449;-82
2021/06/10 06:38:42;;;;;;;10.50;9.53;;;21.00;96.90;;;;;;5117320;23;20765;-83
2021/06/10 06:40:44;;;;;;;39.87;31.50;;;21.10;96.30;;;;;;5125281;23;20444;-83
2021/06/10 06:42:47;;;;;;;13.80;12.40;;;21.20;96.10;;;;;;5125462;23;20533;-84
2021/06/10 06:44:50;;;;;;;21.90;17.53;;;21.40;96.00;;;;;;5125017;23;20454;-83
2021/06/10 06:46:52;;;;;;;24.97;20.73;;;21.50;95.70;;;;;;5123457;23;20425;-84
2021/06/10 06:48:55;;;;;;;19.47;14.73;;;21.50;94.40;;;;;;5123707;23;20426;-83
2021/06/10 06:50:59;;;;;;;9.80;8.60;;;21.60;95.10;;;;;;5115614;23;20446;-84
2021/06/10 06:53:02;;;;;;;11.33;9.90;;;21.80;93.40;;;;;;5123881;23;20505;-82
2021/06/10 06:55:07;;;;;;;8.43;7.53;;;21.90;93.60;;;;;;5123689;23;20463;-84
2021/06/10 06:57:10;;;;;;;9.80;8.70;;;22.10;91.30;;;;;;5123870;23;20418;-83
2021/06/10 06:59:12;;;;;;;11.73;9.57;;;22.10;91.50;;;;;;5115179;23;20461;-83
2021/06/10 07:01:15;;;;;;;9.13;8.23;;;22.20;92.30;;;;;;5123605;23;20422;-84
2021/06/10 07:03:18;;;;;;;29.80;24.03;;;22.30;92.50;;;;;;5123838;23;20838;-84
2021/06/10 07:05:20;;;;;;;28.43;24.23;;;22.40;91.30;;;;;;5116232;23;20450;-84
2021/06/10 07:07:23;;;;;;;62.00;48.50;;;22.40;91.20;;;;;;5124106;23;20764;-82
2021/06/10 07:09:26;;;;;;;62.10;51.40;;;22.60;91.00;;;;;;5116181;23;20430;-84
2021/06/10 07:11:30;;;;;;;22.27;18.77;;;22.70;90.50;;;;;;5124789;23;20441;-84
2021/06/10 07:13:33;;;;;;;16.47;14.33;;;22.80;89.90;;;;;;5124684;23;20422;-84
2021/06/10 07:15:37;;;;;;;7.87;7.17;;;22.80;89.70;;;;;;5124229;23;20953;-83
2021/06/10 07:17:39;;;;;;;9.60;8.47;;;22.90;88.50;;;;;;5124223;23;20958;-84
2021/06/10 07:19:42;;;;;;;10.10;8.97;;;22.80;88.80;;;;;;5124304;23;20426;-83
2021/06/10 07:21:46;;;;;;;9.97;8.97;;;22.70;89.30;;;;;;5116471;23;20441;-83
2021/06/10 07:23:49;;;;;;;10.40;9.30;;;22.70;90.40;;;;;;5116572;23;20433;-82
2021/06/10 07:25:52;;;;;;;11.20;9.73;;;22.80;90.10;;;;;;5116356;23;20490;-84
2021/06/10 07:27:56;;;;;;;39.23;27.43;;;23.00;90.20;;;;;;5124053;23;20514;-82
2021/06/10 07:29:59;;;;;;;49.00;39.20;;;23.10;89.80;;;;;;5124163;23;20477;-84
2021/06/10 07:32:02;;;;;;;54.70;44.33;;;23.20;88.30;;;;;;5124120;23;20430;-84
2021/06/10 07:34:06;;;;;;;24.70;20.60;;;23.40;87.30;;;;;;5115120;23;20488;-83
2021/06/10 07:36:09;;;;;;;13.60;11.77;;;23.60;86.90;;;;;;5116065;23;20454;-84
2021/06/10 07:38:12;;;;;;;9.50;8.60;;;23.60;86.90;;;;;;5124192;23;20922;-83
2021/06/10 07:40:16;;;;;;;10.00;9.00;;;23.60;86.60;;;;;;5124124;23;20818;-84
2021/06/10 07:42:19;;;;;;;7.77;7.07;;;23.60;86.20;;;;;;5124610;23;20432;-84
2021/06/10 07:44:23;;;;;;;20.47;16.10;;;23.60;84.20;;;;;;5124347;23;20433;-82
2021/06/10 07:46:25;;;;;;;103.43;73.33;;;23.60;85.30;;;;;;5124050;23;20472;-84
2021/06/10 07:48:29;;;;;;;20.00;17.07;;;23.70;85.70;;;;;;5123748;23;20919;-83
2021/06/10 07:50:32;;;;;;;9.70;8.70;;;23.80;85.80;;;;;;5124397;23;20552;-84
2021/06/10 07:52:35;;;;;;;8.50;6.70;;;23.90;85.40;;;;;;5124155;23;20462;-84
2021/06/10 07:54:38;;;;;;;6.80;6.13;;;24.10;85.30;;;;;;5124563;23;20449;-84
2021/06/10 07:56:48;;;;;;;7.73;6.37;;;24.20;84.40;;;;;;5124048;23;20455;-83
2021/06/10 07:58:50;;;;;;;9.80;8.90;;;24.30;83.60;;;;;;5116752;23;20465;-84
2021/06/10 08:00:54;;;;;;;7.37;6.67;;;24.20;82.90;;;;;;5125484;23;20797;-84
2021/06/10 08:02:58;;;;;;;8.47;6.93;;;24.20;82.90;;;;;;5117128;23;20509;-84
2021/06/10 08:05:01;;;;;;;7.23;6.53;;;23.90;84.00;;;;;;5116931;23;20426;-84
2021/06/10 08:07:04;;;;;;;7.40;6.70;;;23.90;84.50;;;;;;5116990;23;20528;-84
2021/06/10 08:09:07;;;;;;;8.10;7.40;;;23.90;84.60;;;;;;5116852;23;20430;-83
2021/06/10 08:11:10;;;;;;;7.13;6.43;;;24.00;85.10;;;;;;5117613;23;20936;-84
2021/06/10 08:13:13;;;;;;;7.60;6.80;;;24.10;85.00;;;;;;5125446;23;20414;-84
2021/06/10 08:15:17;;;;;;;9.30;6.77;;;24.20;85.50;;;;;;5117263;23;20446;-84
2021/06/10 08:17:21;;;;;;;7.23;6.50;;;24.30;84.60;;;;;;5117118;23;20466;-83
2021/06/10 08:19:24;;;;;;;8.70;6.00;;;24.20;84.20;;;;;;5125198;23;20508;-84
2021/06/10 08:21:26;;;;;;;6.07;5.47;;;24.40;84.70;;;;;;5125290;23;20502;-84
2021/06/10 08:23:30;;;;;;;6.97;6.37;;;24.50;85.00;;;;;;5125777;23;20552;-82
2021/06/10 08:25:34;;;;;;;6.87;6.17;;;24.60;84.10;;;;;;5118069;23;21026;-84
2021/06/10 08:27:37;;;;;;;7.77;6.97;;;24.70;84.50;;;;;;5119080;23;20969;-83
2021/06/10 08:29:40;;;;;;;7.43;6.73;;;24.80;83.00;;;;;;5132306;23;20429;-82
2021/06/10 08:31:43;;;;;;;7.57;6.80;;;24.90;83.30;;;;;;5140840;23;20445;-83
2021/06/10 08:33:47;;;;;;;9.50;7.53;;;25.10;82.80;;;;;;5141627;23;20422;-82
2021/06/10 08:35:50;;;;;;;7.30;6.37;;;25.00;82.20;;;;;;5132960;23;20450;-82
2021/06/10 08:37:52;;;;;;;11.13;7.00;;;25.00;83.00;;;;;;5132612;23;20482;-82
2021/06/10 08:39:56;;;;;;;9.63;7.63;;;25.00;83.50;;;;;;5141004;23;20459;-83
2021/06/10 08:41:58;;;;;;;9.43;8.50;;;25.00;83.20;;;;;;5136760;23;20453;-84
2021/06/10 08:44:01;;;;;;;8.00;7.20;;;25.30;82.50;;;;;;5118399;23;20458;-83
2021/06/10 08:46:06;;;;;;;7.70;6.93;;;25.50;82.80;;;;;;5127202;23;20449;-84
2021/06/10 08:48:08;;;;;;;8.57;7.80;;;25.70;82.70;;;;;;5118561;23;20453;-84
2021/06/10 08:50:18;;;;;;;9.70;8.80;;;25.80;81.80;;;;;;5125750;23;20926;-84
2021/06/10 08:52:20;;;;;;;13.07;8.77;;;25.70;81.50;;;;;;5126241;23;20405;-84
2021/06/10 08:54:23;;;;;;;8.47;7.53;;;25.60;81.50;;;;;;5117449;23;20438;-84
2021/06/10 08:56:28;;;;;;;8.20;7.40;;;25.80;82.50;;;;;;5117440;23;20521;-84
2021/06/10 08:58:34;;;;;;;8.20;7.50;;;25.90;82.10;;;;;;5125714;23;20425;-84
2021/06/10 09:00:36;;;;;;;9.97;8.97;;;25.90;81.60;;;;;;5125634;23;20486;-83
2021/06/10 09:02:39;;;;;;;9.27;8.37;;;26.00;81.30;;;;;;5125677;23;20933;-84
2021/06/10 09:04:45;;;;;;;7.40;6.80;;;25.90;81.50;;;;;;5116980;23;20417;-85
2021/06/10 09:06:51;;;;;;;9.50;8.70;;;26.10;82.20;;;;;;5125122;23;20476;-85
2021/06/10 09:08:56;;;;;;;10.97;9.93;;;26.30;81.10;;;;;;5124592;23;21030;-85
2021/06/10 09:11:12;;;;;;;10.60;9.50;;;26.30;80.40;;;;;;5125112;23;20441;-85
2021/06/10 09:13:14;;;;;;;32.13;27.43;;;26.40;80.70;;;;;;5125273;23;20430;-84
2021/06/10 09:15:18;;;;;;;63.33;49.73;;;26.50;79.80;;;;;;5125113;23;20545;-86
2021/06/10 09:17:32;;;;;;;93.73;83.83;;;26.40;80.10;;;;;;5124808;23;20432;-85
2021/06/10 09:19:34;;;;;;;17.27;15.50;;;26.20;79.60;;;;;;5125534;23;20496;-85
2021/06/10 09:21:39;;;;;;;12.80;11.60;;;26.20;81.00;;;;;;5125466;23;20468;-86
2021/06/10 09:23:43;;;;;;;10.67;9.77;;;26.50;80.40;;;;;;5117626;23;20820;-86
2021/06/10 09:25:49;;;;;;;11.20;9.53;;;26.50;80.60;;;;;;5117010;23;20503;-86
2021/06/10 09:27:53;;;;;;;11.83;10.73;;;26.80;80.70;;;;;;5124802;23;20418;-86
2021/06/10 09:29:58;;;;;;;13.30;12.20;;;27.00;79.70;;;;;;5125212;23;20437;-85
2021/06/10 09:32:01;;;;;;;11.90;10.90;;;26.80;78.60;;;;;;5116750;23;20469;-85
2021/06/10 09:34:08;;;;;;;10.53;9.53;;;26.40;79.30;;;;;;5116508;23;20433;-85
2021/06/10 09:36:14;;;;;;;11.90;10.70;;;26.50;80.00;;;;;;5124869;23;20449;-86
2021/06/10 09:38:20;;;;;;;12.70;11.50;;;26.50;80.20;;;;;;5116481;23;20413;-85
2021/06/10 09:40:25;;;;;;;12.80;11.07;;;26.30;80.00;;;;;;5125954;23;20473;-85
2021/06/10 09:42:30;;;;;;;29.00;25.13;;;26.20;80.80;;;;;;5118347;23;20428;-85
2021/06/10 09:44:40;;;;;;;52.43;43.97;;;26.40;81.20;;;;;;5126290;23;20516;-86
2021/06/10 09:47:01;;;;;;;24.73;20.63;;;26.60;81.00;;;;;;5125439;23;20449;-85
2021/06/10 09:49:05;;;;;;;13.60;12.40;;;26.90;80.30;;;;;;5126277;23;20867;-86
2021/06/10 09:51:21;;;;;;;13.40;12.20;;;26.80;79.60;;;;;;5126752;23;20452;-85
2021/06/10 09:53:25;;;;;;;14.97;13.50;;;26.70;80.40;;;;;;5119253;23;20405;-85
2021/06/10 09:55:43;;;;;;;12.97;11.83;;;26.40;80.20;;;;;;5126245;23;20524;-85
2021/06/10 09:57:45;;;;;;;15.10;12.80;;;26.20;80.70;;;;;;5117634;23;20497;-85
2021/06/10 09:59:52;;;;;;;12.07;11.00;;;26.40;80.30;;;;;;5117924;23;20464;-85
2021/06/10 10:02:16;;;;;;;15.30;13.90;;;26.50;80.60;;;;;;5126366;23;20493;-84
2021/06/10 10:04:18;;;;;;;11.67;10.57;;;26.50;79.60;;;;;;5125797;23;20501;-85
2021/06/10 10:06:24;;;;;;;11.07;10.07;;;26.50;80.80;;;;;;5126026;23;20816;-86
2021/06/10 10:08:28;;;;;;;12.03;11.03;;;26.80;81.80;;;;;;5125329;23;20499;-85
2021/06/10 10:10:32;;;;;;;12.87;11.67;;;26.90;80.30;;;;;;5125752;23;20484;-85
2021/06/10 10:12:39;;;;;;;12.30;11.10;;;27.10;80.00;;;;;;5117715;23;20767;-84
2021/06/10 10:14:41;;;;;;;14.57;13.27;;;27.20;79.90;;;;;;5117958;23;20413;-85
2021/06/10 10:16:45;;;;;;;15.80;14.30;;;27.20;78.80;;;;;;5117441;23;20532;-86
2021/06/10 10:18:49;;;;;;;14.80;13.30;;;27.30;78.10;;;;;;5117417;23;20557;-85
2021/06/10 10:20:52;;;;;;;13.07;11.87;;;27.20;78.80;;;;;;5125629;23;20424;-86
2021/06/10 10:22:54;;;;;;;15.13;13.83;;;27.40;78.80;;;;;;5125959;23;20433;-86
2021/06/10 10:24:58;;;;;;;11.53;10.53;;;27.40;78.40;;;;;;5125702;23;20480;-85
2021/06/10 10:27:03;;;;;;;13.80;12.60;;;27.50;78.90;;;;;;5125864;23;20418;-86
2021/06/10 10:29:10;;;;;;;16.00;14.43;;;27.50;78.90;;;;;;5117372;23;20484;-86
2021/06/10 10:31:13;;;;;;;13.97;12.73;;;27.50;78.00;;;;;;5126177;23;20453;-86
2021/06/10 10:33:17;;;;;;;14.53;13.03;;;27.60;78.30;;;;;;5125971;23;20751;-86
2021/06/10 10:35:32;;;;;;;14.40;13.10;;;27.70;77.70;;;;;;5117528;23;20944;-85
2021/06/10 10:37:39;;;;;;;11.40;10.37;;;27.80;77.90;;;;;;5125640;23;20490;-85
2021/06/10 10:39:42;;;;;;;12.33;11.30;;;28.00;78.60;;;;;;5125209;23;20517;-86
2021/06/10 10:41:49;;;;;;;16.43;15.00;;;28.10;77.90;;;;;;5125694;23;20951;-85
2021/06/10 10:44:09;;;;;;;14.97;13.57;;;27.70;76.80;;;;;;5117625;23;20430;-86
2021/06/10 10:46:15;;;;;;;13.53;12.33;;;27.40;78.20;;;;;;5125809;23;20509;-85
2021/06/10 10:48:33;;;;;;;15.77;14.17;;;27.60;78.60;;;;;;5125543;23;20471;-85
2021/06/10 10:50:38;;;;;;;13.77;12.57;;;28.00;77.30;;;;;;5117479;23;20436;-86
2021/06/10 10:52:53;;;;;;;13.40;12.20;;;28.00;77.10;;;;;;5125979;23;20425;-85
2021/06/10 10:55:13;;;;;;;14.63;11.53;;;28.20;77.60;;;;;;5125271;23;20429;-85
2021/06/10 10:57:41;;;;;;;14.33;13.03;;;28.60;77.00;;;;;;5125871;23;21096;-86
2021/06/10 10:59:50;;;;;;;14.07;11.33;;;29.00;75.80;;;;;;5125438;23;20748;-85
2021/06/10 11:02:04;;;;;;;12.30;11.20;;;29.30;75.40;;;;;;5117330;23;20461;-85
2021/06/10 11:04:07;;;;;;;13.87;12.43;;;29.00;75.50;;;;;;5125535;23;20524;-85
2021/06/10 11:06:33;;;;;;;45.00;40.27;;;28.60;75.40;;;;;;5125400;23;20959;-85
2021/06/10 11:08:57;;;;;;;68.67;59.23;;;28.30;75.80;;;;;;5117008;23;20414;-86
2021/06/10 11:11:03;;;;;;;18.23;15.93;;;28.30;75.80;;;;;;5117305;23;20417;-85
2021/06/10 11:13:15;;;;;;;14.40;12.90;;;28.40;75.90;;;;;;5117616;23;20457;-86
2021/06/10 11:15:47;;;;;;;16.90;15.37;;;28.80;75.50;;;;;;5117277;23;20843;-85
2021/06/10 11:17:51;;;;;;;14.90;13.60;;;29.10;74.10;;;;;;5124637;23;20512;-85
2021/06/10 11:20:05;;;;;;;14.33;13.10;;;28.70;74.70;;;;;;5125401;23;20422;-85
2021/06/10 11:22:25;;;;;;;17.43;15.90;;;28.20;75.50;;;;;;5117412;23;20442;-85
2021/06/10 11:24:28;;;;;;;16.97;15.30;;;27.70;76.00;;;;;;5125694;23;20409;-85
2021/06/10 11:26:47;;;;;;;29.47;26.47;;;27.60;76.70;;;;;;5116812;23;20454;-85
2021/06/10 11:29:01;;;;;;;28.73;25.77;;;27.60;76.90;;;;;;5125423;23;20414;-84
2021/06/10 11:31:16;;;;;;;25.80;23.10;;;27.90;77.10;;;;;;5116730;23;20509;-86
2021/06/10 11:33:27;;;;;;;14.07;12.87;;;28.10;77.10;;;;;;5116774;23;20449;-85
2021/06/10 11:35:35;;;;;;;13.30;12.07;;;28.30;75.60;;;;;;5117262;23;20454;-84
2021/06/10 11:37:38;;;;;;;11.63;10.73;;;28.60;74.40;;;;;;5125800;23;20417;-85
2021/06/10 11:39:41;;;;;;;13.77;12.37;;;28.70;74.50;;;;;;5116666;23;20430;-85
2021/06/10 11:41:44;;;;;;;12.17;10.97;;;29.00;73.70;;;;;;5125012;23;20443;-85
2021/06/10 11:43:54;;;;;;;13.30;12.00;;;29.30;74.20;;;;;;5125256;23;20911;-85
2021/06/10 11:46:06;;;;;;;13.10;12.00;;;29.70;72.70;;;;;;5125215;23;20930;-85
2021/06/10 11:48:11;;;;;;;12.87;11.70;;;29.90;72.50;;;;;;5116404;23;20453;-85
2021/06/10 11:50:25;;;;;;;13.00;11.90;;;30.00;72.00;;;;;;5124703;23;20421;-85
2021/06/10 11:52:52;;;;;;;12.67;11.77;;;30.10;70.90;;;;;;5124723;23;20413;-85
2021/06/10 11:55:07;;;;;;;12.50;11.40;;;30.00;71.20;;;;;;5125116;23;20452;-84
2021/06/10 11:57:10;;;;;;;13.57;12.40;;;30.60;71.70;;;;;;5116901;23;20410;-85
2021/06/10 11:59:17;;;;;;;12.90;11.60;;;31.20;69.80;;;;;;5124614;23;20417;-86
2021/06/10 12:01:20;;;;;;;9.73;8.88;;;31.10;69.50;;;;;;5116286;23;20462;-85
2021/06/10 12:03:25;;;;;;;10.80;9.80;;;31.40;71.10;;;;;;5124452;23;20767;-85
2021/06/10 12:05:31;;;;;;;10.52;9.73;;;31.90;69.30;;;;;;5124742;23;20471;-85
2021/06/10 12:07:33;;;;;;;12.80;11.77;;;32.10;67.50;;;;;;5116456;23;20410;-85
2021/06/10 12:09:47;;;;;;;12.10;11.10;;;32.00;66.80;;;;;;5116476;23;20425;-85
2021/06/10 12:11:50;;;;;;;31.90;28.77;;;31.50;68.10;;;;;;5124752;23;20971;-85
2021/06/10 12:13:53;;;;;;;25.55;23.35;;;31.30;67.60;;;;;;5124306;23;20463;-85
2021/06/10 12:15:56;;;;;;;34.03;30.73;;;31.20;68.00;;;;;;5124510;23;20480;-85
2021/06/10 12:18:01;;;;;;;25.02;22.67;;;31.50;68.10;;;;;;5124752;23;20930;-85
2021/06/10 12:20:27;;;;;;;12.40;11.23;;;31.70;67.70;;;;;;5116610;23;20429;-85
2021/06/10 12:22:43;;;;;;;11.52;10.57;;;31.90;68.00;;;;;;5124872;23;20834;-85
2021/06/10 12:24:48;;;;;;;11.85;10.93;;;32.30;65.70;;;;;;5124832;23;20421;-85
2021/06/10 12:26:51;;;;;;;10.20;9.20;;;32.20;66.00;;;;;;5116902;23;20872;-85
2021/06/10 12:28:55;;;;;;;10.70;9.73;;;32.00;66.00;;;;;;5116080;23;20430;-85
2021/06/10 12:31:10;;;;;;;13.32;12.23;;;32.00;64.90;;;;;;5124537;23;20439;-85
2021/06/10 12:33:16;;;;;;;12.02;10.93;;;32.20;64.70;;;;;;5116788;23;20416;-86
2021/06/10 12:35:21;;;;;;;11.38;10.48;;;32.20;64.80;;;;;;5124927;23;20448;-86
2021/06/10 12:37:25;;;;;;;10.50;9.50;;;32.50;64.50;;;;;;5124554;23;20816;-85
2021/06/10 12:43:06;;;;;;;10.25;9.35;;;33.40;63.70;;;;;;5109282;23;20666;-85
2021/06/10 12:45:27;;;;;;;10.48;9.57;;;33.70;63.70;;;;;;5124689;23;20185;-86
2021/06/10 12:47:35;;;;;;;11.23;10.38;;;33.80;63.50;;;;;;5124334;23;20158;-85
2021/06/10 12:49:43;;;;;;;13.02;12.02;;;33.60;62.90;;;;;;5116793;23;20798;-85
2021/06/10 12:51:47;;;;;;;10.30;9.35;;;33.40;63.10;;;;;;5124999;23;20169;-85
2021/06/10 12:54:03;;;;;;;11.35;10.48;;;33.10;64.10;;;;;;5116579;23;20184;-86
2021/06/10 12:56:09;;;;;;;10.95;10.15;;;33.20;64.00;;;;;;5123979;23;20198;-85
2021/06/10 12:58:16;;;;;;;15.38;14.20;;;33.10;63.80;;;;;;5124514;23;20228;-85
2021/06/10 13:00:29;;;;;;;34.38;31.23;;;32.80;63.20;;;;;;5124391;23;20180;-85
2021/06/10 13:02:33;;;;;;;37.20;33.92;;;32.70;64.30;;;;;;5124917;23;20186;-83
2021/06/10 13:04:38;;;;;;;15.18;13.98;;;33.00;64.40;;;;;;5124657;23;20545;-82
2021/06/10 13:06:41;;;;;;;12.57;11.68;;;32.90;62.40;;;;;;5124025;23;20290;-82
2021/06/10 13:08:43;;;;;;;12.13;11.02;;;32.50;64.00;;;;;;5116056;23;20182;-82
2021/06/10 13:10:56;;;;;;;11.43;10.52;;;32.10;64.50;;;;;;5124191;23;20512;-83
2021/06/10 13:12:59;;;;;;;16.63;15.07;;;32.20;66.20;;;;;;5124653;23;20417;-82
2021/06/10 13:15:11;;;;;;;11.90;11.00;;;32.60;64.40;;;;;;5117884;23;20434;-83
2021/06/10 13:17:14;;;;;;;13.93;12.73;;;32.70;65.00;;;;;;5126400;23;20801;-82
2021/06/10 13:19:26;;;;;;;14.05;12.90;;;32.90;64.00;;;;;;5125986;23;20433;-82
2021/06/10 13:21:32;;;;;;;11.40;10.50;;;33.10;63.00;;;;;;5126155;23;20425;-82
2021/06/10 13:23:45;;;;;;;11.73;10.82;;;33.30;63.00;;;;;;5126310;23;20182;-83
2021/06/10 13:26:06;;;;;;;12.27;11.27;;;33.20;63.20;;;;;;5117873;23;20277;-82
2021/06/10 13:28:14;;;;;;;12.43;11.43;;;33.10;61.90;;;;;;5117450;23;20206;-83
2021/06/10 13:30:20;;;;;;;11.50;10.63;;;32.70;62.50;;;;;;5117869;23;20413;-82
2021/06/10 13:32:25;;;;;;;12.77;11.77;;;32.40;63.50;;;;;;5125883;23;20436;-84
2021/06/10 13:34:36;;;;;;;9.43;8.73;;;32.50;63.10;;;;;;5125922;23;20500;-85
2021/06/10 13:36:44;;;;;;;10.77;9.88;;;32.60;63.60;;;;;;5126138;23;20838;-85
2021/06/10 13:38:47;;;;;;;12.90;11.65;;;33.20;63.90;;;;;;5125819;23;20158;-85
2021/06/10 13:40:50;;;;;;;12.38;11.48;;;33.60;63.10;;;;;;5125810;23;20177;-86
2021/06/10 13:42:54;;;;;;;11.50;10.60;;;33.80;63.00;;;;;;5117794;23;20221;-85
2021/06/10 13:44:56;;;;;;;13.02;12.00;;;33.80;62.60;;;;;;5125850;23;20212;-85
2021/06/10 13:46:59;;;;;;;11.05;10.25;;;34.20;63.30;;;;;;5125814;23;20544;-83
2021/06/10 13:49:01;;;;;;;11.52;10.73;;;34.70;62.60;;;;;;5125707;23;20181;-83
2021/06/10 13:51:05;;;;;;;11.57;10.68;;;34.90;60.80;;;;;;5125809;23;20174;-83
2021/06/10 13:53:07;;;;;;;11.57;10.23;;;34.70;60.30;;;;;;5125855;23;20170;-83
2021/06/10 13:55:10;;;;;;;11.68;10.77;;;34.60;61.30;;;;;;5125713;23;20194;-83
2021/06/10 13:57:12;;;;;;;12.13;11.23;;;34.40;61.10;;;;;;5125527;23;20174;-85
2021/06/10 13:59:16;;;;;;;10.80;9.85;;;34.50;61.50;;;;;;5117325;23;20178;-82
2021/06/10 14:01:19;;;;;;;10.20;9.50;;;34.40;61.50;;;;;;5126001;23;20186;-83
2021/06/10 14:03:22;;;;;;;13.25;12.25;;;34.30;62.30;;;;;;5125524;23;20194;-83
2021/06/10 14:05:24;;;;;;;11.00;10.20;;;34.20;60.90;;;;;;5125551;23;20205;-82
2021/06/10 14:07:27;;;;;;;9.75;9.05;;;34.30;61.60;;;;;;5117422;23;20651;-83
2021/06/10 14:09:29;;;;;;;11.63;10.45;;;34.00;62.90;;;;;;5125782;23;20192;-83
2021/06/10 14:11:31;;;;;;;27.20;24.85;;;33.90;63.90;;;;;;5117463;23;20182;-83
2021/06/10 14:13:34;;;;;;;31.15;28.40;;;33.90;63.30;;;;;;5125897;23;20262;-83
2021/06/10 14:15:39;;;;;;;15.00;13.85;;;33.60;62.70;;;;;;5117568;23;20689;-82
2021/06/10 14:17:41;;;;;;;12.57;11.40;;;33.10;62.80;;;;;;5117130;23;20640;-82
2021/06/10 14:19:44;;;;;;;12.48;11.52;;;32.90;63.90;;;;;;5125783;23;20221;-83
2021/06/10 14:21:47;;;;;;;12.68;11.68;;;32.70;64.40;;;;;;5125795;23;20206;-82
2021/06/10 14:23:50;;;;;;;13.82;12.63;;;33.00;64.60;;;;;;5117092;23;20445;-83
2021/06/10 14:25:53;;;;;;;15.10;13.90;;;32.80;64.60;;;;;;5125675;23;20488;-82
2021/06/10 14:27:57;;;;;;;14.30;13.10;;;32.50;65.80;;;;;;5125474;23;20421;-83
2021/06/10 14:30:11;;;;;;;16.58;15.18;;;32.50;66.00;;;;;;5117246;23;20805;-83
2021/06/10 14:32:18;;;;;;;18.23;16.73;;;32.50;66.50;;;;;;5117092;23;20507;-83
2021/06/10 14:34:21;;;;;;;17.58;15.85;;;32.50;66.00;;;;;;5125505;23;20921;-83
2021/06/10 14:36:24;;;;;;;21.67;19.73;;;32.30;66.00;;;;;;5117368;23;20456;-82
2021/06/10 14:38:26;;;;;;;18.45;16.95;;;32.20;65.60;;;;;;5124933;23;20823;-82
2021/06/10 14:40:32;;;;;;;20.02;18.30;;;31.80;66.20;;;;;;5117391;23;20435;-82
2021/06/10 14:42:40;;;;;;;24.63;22.73;;;31.60;67.10;;;;;;5117365;23;20930;-85
2021/06/10 14:44:43;;;;;;;14.43;13.10;;;31.30;67.80;;;;;;5117571;23;20777;-84
2021/06/10 14:46:45;;;;;;;17.47;15.97;;;31.00;67.90;;;;;;5125666;23;20445;-85
2021/06/10 14:48:50;;;;;;;15.30;13.90;;;30.70;68.60;;;;;;5117122;23;20430;-84
2021/06/10 14:50:53;;;;;;;14.23;13.03;;;30.70;68.90;;;;;;5117071;23;20461;-85
2021/06/10 14:52:55;;;;;;;15.03;13.63;;;30.60;68.40;;;;;;5125661;23;20417;-85
2021/06/10 14:54:58;;;;;;;16.07;14.60;;;30.50;68.80;;;;;;5125362;23;20891;-85
2021/06/10 14:57:00;;;;;;;15.10;13.80;;;30.30;68.90;;;;;;5117148;23;20831;-85
2021/06/10 14:59:04;;;;;;;13.27;12.17;;;30.10;70.40;;;;;;5125427;23;20449;-85
2021/06/10 15:01:06;;;;;;;14.87;13.27;;;30.20;71.10;;;;;;5125495;23;20468;-85
2021/06/10 15:03:09;;;;;;;14.20;13.07;;;30.20;69.90;;;;;;5125030;23;20449;-85
2021/06/10 15:05:13;;;;;;;16.00;14.50;;;29.90;70.10;;;;;;5117111;23;20432;-85
2021/06/10 15:07:15;;;;;;;16.07;14.77;;;29.70;70.50;;;;;;5116548;23;20516;-85
2021/06/10 15:09:21;;;;;;;17.37;15.97;;;29.70;70.50;;;;;;5125216;23;20414;-85
2021/06/10 15:11:23;;;;;;;15.27;13.87;;;29.70;70.50;;;;;;5125143;23;20452;-84
2021/06/10 15:13:26;;;;;;;15.10;13.70;;;29.60;71.60;;;;;;5124705;23;20437;-85
2021/06/10 15:15:29;;;;;;;13.77;12.57;;;29.50;72.20;;;;;;5116865;23;20453;-84
2021/06/10 15:17:31;;;;;;;16.50;15.10;;;29.50;71.90;;;;;;5116812;23;20457;-85
2021/06/10 15:19:34;;;;;;;16.80;15.20;;;29.50;71.80;;;;;;5125026;23;20525;-84
2021/06/10 15:21:39;;;;;;;15.97;14.63;;;29.30;72.10;;;;;;5116878;23;20512;-85
2021/06/10 15:23:41;;;;;;;15.93;14.33;;;29.20;72.20;;;;;;5117065;23;20445;-84
2021/06/10 15:25:44;;;;;;;15.40;14.20;;;29.20;72.70;;;;;;5116249;23;20449;-85
2021/06/10 15:27:46;;;;;;;14.13;12.87;;;29.10;72.20;;;;;;5124692;23;20434;-85
2021/06/10 15:29:51;;;;;;;15.80;14.40;;;29.10;72.60;;;;;;5125517;23;20418;-85
2021/06/10 15:31:54;;;;;;;16.70;14.80;;;29.10;72.10;;;;;;5125306;23;20494;-85
2021/06/10 15:33:56;;;;;;;16.77;15.10;;;29.00;72.40;;;;;;5116873;23;20916;-84
2021/06/10 15:35:59;;;;;;;16.10;14.53;;;29.00;72.00;;;;;;5116653;23;20532;-84
2021/06/10 15:38:03;;;;;;;14.90;13.67;;;28.70;72.70;;;;;;5115910;23;20439;-85
2021/06/10 15:40:07;;;;;;;15.20;13.70;;;28.60;73.10;;;;;;5124748;23;20425;-84
2021/06/10 15:42:10;;;;;;;15.33;13.50;;;28.60;73.10;;;;;;5116599;23;20470;-85
2021/06/10 15:44:13;;;;;;;14.33;13.13;;;28.60;73.30;;;;;;5116604;23;20552;-85
2021/06/10 15:46:15;;;;;;;13.93;12.73;;;28.50;74.10;;;;;;5125014;23;20448;-85
2021/06/10 15:48:18;;;;;;;15.50;14.20;;;28.50;74.50;;;;;;5124604;23;20937;-85
2021/06/10 15:50:21;;;;;;;13.90;12.70;;;28.50;74.70;;;;;;5125751;23;20966;-85
2021/06/10 15:52:23;;;;;;;14.50;13.30;;;28.50;74.70;;;;;;5117089;23;20460;-84
2021/06/10 15:54:28;;;;;;;15.10;13.70;;;28.50;74.40;;;;;;5125133;23;20428;-84
2021/06/10 15:56:30;;;;;;;18.07;16.17;;;28.40;74.30;;;;;;5116850;23;20454;-84
2021/06/10 15:58:33;;;;;;;16.77;15.37;;;28.40;74.60;;;;;;5124538;23;20497;-85
2021/06/10 16:00:36;;;;;;;16.60;15.20;;;28.30;75.00;;;;;;5116893;23;20911;-84
2021/06/10 16:02:38;;;;;;;14.43;13.23;;;28.20;75.30;;;;;;5124778;23;20430;-84
2021/06/10 16:04:41;;;;;;;14.70;13.40;;;28.10;75.80;;;;;;5124788;23;20440;-83
2021/06/10 16:06:43;;;;;;;25.50;23.00;;;28.20;76.50;;;;;;5116667;23;20533;-84